sensor_id;sensor_type;location;lat;lon;timestamp;P1;durP1;ratioP1;P2;durP2;ratioP2
55222;SDS011;41090;48.632;12.428;2023-12-04T00:02:08;43.67;;;26.27;;
55222;SDS011;41090;48.632;12.428;2023-12-04T00:04:33;39.53;;;24.90;;
55222;SDS011;41090;48.632;12.428;2023-12-04T00:06:58;40.17;;;24.47;;
55222;SDS011;41090;48.632;12.428;2023-12-04T00:09:23;37.37;;;24.17;;
55222;SDS011;41090;48.632;12.428;2023-12-04T00:11:49;37.87;;;24.93;;
55222;SDS011;41090;48.632;12.428;2023-12-04T00:14:15;38.83;;;24.50;;
55222;SDS011;41090;48.632;12.428;2023-12-04T00:16:40;38.93;;;24.90;;
55222;SDS011;41090;48.632;12.428;2023-12-04T00:19:05;41.57;;;25.27;;
55222;SDS011;41090;48.632;12.428;2023-12-04T00:21:31;40.78;;;25.70;;
55222;SDS011;41090;48.632;12.428;2023-12-04T00:23:57;37.00;;;22.63;;
55222;SDS011;41090;48.632;12.428;2023-12-04T00:26:22;41.80;;;26.67;;
55222;SDS011;41090;48.632;12.428;2023-12-04T00:28:47;49.13;;;25.53;;
55222;SDS011;41090;48.632;12.428;2023-12-04T00:31:12;38.20;;;24.13;;
55222;SDS011;41090;48.632;12.428;2023-12-04T00:33:38;38.30;;;25.30;;
55222;SDS011;41090;48.632;12.428;2023-12-04T00:36:03;41.00;;;24.93;;
55222;SDS011;41090;48.632;12.428;2023-12-04T00:38:28;38.40;;;24.83;;
55222;SDS011;41090;48.632;12.428;2023-12-04T00:40:53;40.13;;;24.70;;
55222;SDS011;41090;48.632;12.428;2023-12-04T00:43:19;39.23;;;25.20;;
55222;SDS011;41090;48.632;12.428;2023-12-04T00:45:45;39.10;;;23.40;;
55222;SDS011;41090;48.632;12.428;2023-12-04T00:48:10;37.40;;;24.08;;
55222;SDS011;41090;48.632;12.428;2023-12-04T00:50:35;39.23;;;24.63;;
55222;SDS011;41090;48.632;12.428;2023-12-04T00:53:00;39.07;;;25.00;;
55222;SDS011;41090;48.632;12.428;2023-12-04T00:55:26;36.33;;;23.40;;
55222;SDS011;41090;48.632;12.428;2023-12-04T00:57:51;34.73;;;22.73;;
55222;SDS011;41090;48.632;12.428;2023-12-04T01:00:16;39.27;;;24.03;;
55222;SDS011;41090;48.632;12.428;2023-12-04T01:02:42;37.67;;;23.77;;
55222;SDS011;41090;48.632;12.428;2023-12-04T01:05:07;34.43;;;22.83;;
55222;SDS011;41090;48.632;12.428;2023-12-04T01:07:33;32.60;;;22.03;;
55222;SDS011;41090;48.632;12.428;2023-12-04T01:09:58;35.50;;;21.20;;
55222;SDS011;41090;48.632;12.428;2023-12-04T01:12:23;36.83;;;22.93;;
55222;SDS011;41090;48.632;12.428;2023-12-04T01:14:48;38.07;;;22.00;;
55222;SDS011;41090;48.632;12.428;2023-12-04T01:17:14;34.00;;;22.00;;
55222;SDS011;41090;48.632;12.428;2023-12-04T01:19:39;31.70;;;21.50;;
55222;SDS011;41090;48.632;12.428;2023-12-04T01:22:05;30.63;;;19.73;;
55222;SDS011;41090;48.632;12.428;2023-12-04T01:24:30;33.90;;;21.87;;
55222;SDS011;41090;48.632;12.428;2023-12-04T01:26:55;31.80;;;19.73;;
55222;SDS011;41090;48.632;12.428;2023-12-04T01:29:20;32.80;;;20.23;;
55222;SDS011;41090;48.632;12.428;2023-12-04T01:31:46;33.40;;;20.83;;
55222;SDS011;41090;48.632;12.428;2023-12-04T01:34:11;32.23;;;21.07;;
55222;SDS011;41090;48.632;12.428;2023-12-04T01:36:39;31.97;;;21.23;;
55222;SDS011;41090;48.632;12.428;2023-12-04T01:39:04;34.53;;;21.00;;
55222;SDS011;41090;48.632;12.428;2023-12-04T01:41:30;32.83;;;21.10;;
55222;SDS011;41090;48.632;12.428;2023-12-04T01:43:55;35.03;;;20.80;;
55222;SDS011;41090;48.632;12.428;2023-12-04T01:46:20;34.17;;;21.40;;
55222;SDS011;41090;48.632;12.428;2023-12-04T01:48:46;32.43;;;21.40;;
55222;SDS011;41090;48.632;12.428;2023-12-04T01:51:14;31.73;;;20.88;;
55222;SDS011;41090;48.632;12.428;2023-12-04T01:53:40;32.57;;;21.57;;
55222;SDS011;41090;48.632;12.428;2023-12-04T01:56:05;30.50;;;21.07;;
55222;SDS011;41090;48.632;12.428;2023-12-04T01:58:31;30.87;;;19.70;;
55222;SDS011;41090;48.632;12.428;2023-12-04T02:00:56;33.13;;;20.70;;
55222;SDS011;41090;48.632;12.428;2023-12-04T02:03:22;32.80;;;20.93;;
55222;SDS011;41090;48.632;12.428;2023-12-04T02:05:47;31.53;;;20.93;;
55222;SDS011;41090;48.632;12.428;2023-12-04T02:08:13;33.47;;;21.80;;
55222;SDS011;41090;48.632;12.428;2023-12-04T02:10:39;32.83;;;21.63;;
55222;SDS011;41090;48.632;12.428;2023-12-04T02:13:04;32.53;;;21.03;;
55222;SDS011;41090;48.632;12.428;2023-12-04T02:15:29;29.97;;;20.37;;
55222;SDS011;41090;48.632;12.428;2023-12-04T02:17:55;36.23;;;21.90;;
55222;SDS011;41090;48.632;12.428;2023-12-04T02:20:20;32.63;;;22.20;;
55222;SDS011;41090;48.632;12.428;2023-12-04T02:22:45;31.70;;;21.00;;
55222;SDS011;41090;48.632;12.428;2023-12-04T02:25:10;34.87;;;21.63;;
55222;SDS011;41090;48.632;12.428;2023-12-04T02:27:47;32.20;;;20.73;;
55222;SDS011;41090;48.632;12.428;2023-12-04T02:30:14;32.30;;;20.90;;
55222;SDS011;41090;48.632;12.428;2023-12-04T02:32:43;33.17;;;20.95;;
55222;SDS011;41090;48.632;12.428;2023-12-04T02:35:09;32.15;;;19.92;;
55222;SDS011;41090;48.632;12.428;2023-12-04T02:37:35;31.23;;;20.27;;
55222;SDS011;41090;48.632;12.428;2023-12-04T02:40:00;32.07;;;20.70;;
55222;SDS011;41090;48.632;12.428;2023-12-04T02:42:26;31.20;;;20.10;;
55222;SDS011;41090;48.632;12.428;2023-12-04T02:44:51;30.93;;;19.63;;
55222;SDS011;41090;48.632;12.428;2023-12-04T02:47:17;28.10;;;19.00;;
55222;SDS011;41090;48.632;12.428;2023-12-04T02:49:42;31.40;;;20.43;;
55222;SDS011;41090;48.632;12.428;2023-12-04T02:52:07;31.23;;;20.37;;
55222;SDS011;41090;48.632;12.428;2023-12-04T02:54:32;33.03;;;20.30;;
55222;SDS011;41090;48.632;12.428;2023-12-04T02:56:58;29.07;;;19.83;;
55222;SDS011;41090;48.632;12.428;2023-12-04T02:59:23;32.87;;;19.97;;
55222;SDS011;41090;48.632;12.428;2023-12-04T03:01:48;30.73;;;20.10;;
55222;SDS011;41090;48.632;12.428;2023-12-04T03:04:13;29.37;;;21.00;;
55222;SDS011;41090;48.632;12.428;2023-12-04T03:06:38;32.83;;;20.90;;
55222;SDS011;41090;48.632;12.428;2023-12-04T03:09:04;32.17;;;21.37;;
55222;SDS011;41090;48.632;12.428;2023-12-04T03:11:29;31.87;;;21.00;;
55222;SDS011;41090;48.632;12.428;2023-12-04T03:13:55;32.00;;;20.17;;
55222;SDS011;41090;48.632;12.428;2023-12-04T03:16:20;27.83;;;18.93;;
55222;SDS011;41090;48.632;12.428;2023-12-04T03:18:45;29.63;;;18.43;;
55222;SDS011;41090;48.632;12.428;2023-12-04T03:21:11;27.80;;;18.87;;
55222;SDS011;41090;48.632;12.428;2023-12-04T03:23:36;29.60;;;19.40;;
55222;SDS011;41090;48.632;12.428;2023-12-04T03:26:02;32.13;;;20.23;;
55222;SDS011;41090;48.632;12.428;2023-12-04T03:28:27;31.77;;;20.93;;
55222;SDS011;41090;48.632;12.428;2023-12-04T03:30:52;28.17;;;18.93;;
55222;SDS011;41090;48.632;12.428;2023-12-04T03:33:18;29.83;;;19.80;;
55222;SDS011;41090;48.632;12.428;2023-12-04T03:35:43;31.27;;;19.20;;
55222;SDS011;41090;48.632;12.428;2023-12-04T03:38:08;30.27;;;18.73;;
55222;SDS011;41090;48.632;12.428;2023-12-04T03:40:33;30.97;;;20.43;;
55222;SDS011;41090;48.632;12.428;2023-12-04T03:42:59;36.50;;;21.43;;
55222;SDS011;41090;48.632;12.428;2023-12-04T03:45:24;29.60;;;19.53;;
55222;SDS011;41090;48.632;12.428;2023-12-04T03:47:49;29.60;;;18.67;;
55222;SDS011;41090;48.632;12.428;2023-12-04T03:50:14;29.90;;;19.87;;
55222;SDS011;41090;48.632;12.428;2023-12-04T03:52:40;31.37;;;19.63;;
55222;SDS011;41090;48.632;12.428;2023-12-04T03:55:06;29.20;;;18.75;;
55222;SDS011;41090;48.632;12.428;2023-12-04T03:57:32;27.90;;;17.80;;
55222;SDS011;41090;48.632;12.428;2023-12-04T03:59:57;29.10;;;18.53;;
55222;SDS011;41090;48.632;12.428;2023-12-04T04:02:22;27.80;;;17.97;;
55222;SDS011;41090;48.632;12.428;2023-12-04T04:04:47;31.53;;;19.90;;
55222;SDS011;41090;48.632;12.428;2023-12-04T04:07:15;30.43;;;19.43;;
55222;SDS011;41090;48.632;12.428;2023-12-04T04:09:40;33.55;;;20.02;;
55222;SDS011;41090;48.632;12.428;2023-12-04T04:12:06;31.00;;;20.23;;
55222;SDS011;41090;48.632;12.428;2023-12-04T04:14:31;30.00;;;18.73;;
55222;SDS011;41090;48.632;12.428;2023-12-04T04:16:56;30.73;;;19.27;;
55222;SDS011;41090;48.632;12.428;2023-12-04T04:19:21;32.43;;;19.90;;
55222;SDS011;41090;48.632;12.428;2023-12-04T04:21:46;27.10;;;18.57;;
55222;SDS011;41090;48.632;12.428;2023-12-04T04:24:12;28.33;;;18.80;;
55222;SDS011;41090;48.632;12.428;2023-12-04T04:26:37;30.20;;;19.57;;
55222;SDS011;41090;48.632;12.428;2023-12-04T04:29:02;28.20;;;19.00;;
55222;SDS011;41090;48.632;12.428;2023-12-04T04:31:28;30.40;;;18.93;;
55222;SDS011;41090;48.632;12.428;2023-12-04T04:33:53;30.63;;;19.27;;
55222;SDS011;41090;48.632;12.428;2023-12-04T04:36:18;31.00;;;19.93;;
55222;SDS011;41090;48.632;12.428;2023-12-04T04:38:43;31.87;;;19.03;;
55222;SDS011;41090;48.632;12.428;2023-12-04T04:41:18;27.87;;;19.10;;
55222;SDS011;41090;48.632;12.428;2023-12-04T04:43:43;28.52;;;18.70;;
55222;SDS011;41090;48.632;12.428;2023-12-04T04:46:08;27.07;;;18.63;;
55222;SDS011;41090;48.632;12.428;2023-12-04T04:48:34;28.53;;;19.07;;
55222;SDS011;41090;48.632;12.428;2023-12-04T04:50:59;28.40;;;18.57;;
55222;SDS011;41090;48.632;12.428;2023-12-04T04:53:24;28.93;;;18.50;;
55222;SDS011;41090;48.632;12.428;2023-12-04T04:55:49;29.60;;;19.10;;
55222;SDS011;41090;48.632;12.428;2023-12-04T04:58:18;30.40;;;18.77;;
55222;SDS011;41090;48.632;12.428;2023-12-04T05:00:43;29.02;;;18.45;;
55222;SDS011;41090;48.632;12.428;2023-12-04T05:03:09;27.50;;;17.87;;
55222;SDS011;41090;48.632;12.428;2023-12-04T05:05:34;25.90;;;17.10;;
55222;SDS011;41090;48.632;12.428;2023-12-04T05:07:59;27.73;;;17.10;;
55222;SDS011;41090;48.632;12.428;2023-12-04T05:10:24;32.27;;;19.47;;
55222;SDS011;41090;48.632;12.428;2023-12-04T05:12:50;31.30;;;19.60;;
55222;SDS011;41090;48.632;12.428;2023-12-04T05:15:15;30.83;;;19.90;;
55222;SDS011;41090;48.632;12.428;2023-12-04T05:17:40;32.67;;;19.43;;
55222;SDS011;41090;48.632;12.428;2023-12-04T05:20:05;28.67;;;18.23;;
55222;SDS011;41090;48.632;12.428;2023-12-04T05:22:31;32.43;;;20.00;;
55222;SDS011;41090;48.632;12.428;2023-12-04T05:24:56;35.47;;;21.57;;
55222;SDS011;41090;48.632;12.428;2023-12-04T05:27:21;35.93;;;22.77;;
55222;SDS011;41090;48.632;12.428;2023-12-04T05:29:46;31.87;;;20.33;;
55222;SDS011;41090;48.632;12.428;2023-12-04T05:32:12;32.83;;;20.67;;
55222;SDS011;41090;48.632;12.428;2023-12-04T05:34:37;38.97;;;21.97;;
55222;SDS011;41090;48.632;12.428;2023-12-04T05:37:02;35.60;;;21.70;;
55222;SDS011;41090;48.632;12.428;2023-12-04T05:39:27;33.33;;;22.10;;
55222;SDS011;41090;48.632;12.428;2023-12-04T05:41:52;32.60;;;20.83;;
55222;SDS011;41090;48.632;12.428;2023-12-04T05:44:18;29.60;;;20.30;;
55222;SDS011;41090;48.632;12.428;2023-12-04T05:46:43;32.63;;;20.30;;
55222;SDS011;41090;48.632;12.428;2023-12-04T05:49:08;33.07;;;20.20;;
55222;SDS011;41090;48.632;12.428;2023-12-04T05:51:35;34.55;;;19.50;;
55222;SDS011;41090;48.632;12.428;2023-12-04T05:54:00;44.33;;;26.60;;
55222;SDS011;41090;48.632;12.428;2023-12-04T05:56:25;38.67;;;23.23;;
55222;SDS011;41090;48.632;12.428;2023-12-04T05:58:50;34.17;;;22.07;;
55222;SDS011;41090;48.632;12.428;2023-12-04T06:01:15;37.37;;;24.00;;
55222;SDS011;41090;48.632;12.428;2023-12-04T06:03:41;46.27;;;24.83;;
55222;SDS011;41090;48.632;12.428;2023-12-04T06:06:06;38.60;;;23.43;;
55222;SDS011;41090;48.632;12.428;2023-12-04T06:08:31;37.87;;;23.00;;
55222;SDS011;41090;48.632;12.428;2023-12-04T06:10:57;35.13;;;21.93;;
55222;SDS011;41090;48.632;12.428;2023-12-04T06:13:22;32.13;;;20.47;;
55222;SDS011;41090;48.632;12.428;2023-12-04T06:15:48;33.60;;;21.07;;
55222;SDS011;41090;48.632;12.428;2023-12-04T06:18:13;34.80;;;21.37;;
55222;SDS011;41090;48.632;12.428;2023-12-04T06:20:38;32.30;;;20.47;;
55222;SDS011;41090;48.632;12.428;2023-12-04T06:23:03;36.07;;;22.87;;
55222;SDS011;41090;48.632;12.428;2023-12-04T06:25:29;34.63;;;22.40;;
55222;SDS011;41090;48.632;12.428;2023-12-04T06:27:54;37.00;;;24.57;;
55222;SDS011;41090;48.632;12.428;2023-12-04T06:30:19;35.60;;;23.10;;
55222;SDS011;41090;48.632;12.428;2023-12-04T06:32:45;36.13;;;23.17;;
55222;SDS011;41090;48.632;12.428;2023-12-04T06:35:10;34.53;;;22.10;;
55222;SDS011;41090;48.632;12.428;2023-12-04T06:37:37;35.47;;;22.43;;
55222;SDS011;41090;48.632;12.428;2023-12-04T06:40:03;37.83;;;21.63;;
55222;SDS011;41090;48.632;12.428;2023-12-04T06:42:28;34.90;;;21.80;;
55222;SDS011;41090;48.632;12.428;2023-12-04T06:44:54;38.83;;;22.70;;
55222;SDS011;41090;48.632;12.428;2023-12-04T06:47:20;38.93;;;23.03;;
55222;SDS011;41090;48.632;12.428;2023-12-04T06:49:47;30.42;;;20.52;;
55222;SDS011;41090;48.632;12.428;2023-12-04T06:52:12;33.73;;;21.60;;
55222;SDS011;41090;48.632;12.428;2023-12-04T06:54:37;33.13;;;21.97;;
55222;SDS011;41090;48.632;12.428;2023-12-04T06:57:03;34.60;;;21.87;;
55222;SDS011;41090;48.632;12.428;2023-12-04T06:59:28;33.07;;;21.87;;
55222;SDS011;41090;48.632;12.428;2023-12-04T07:01:53;37.33;;;22.97;;
55222;SDS011;41090;48.632;12.428;2023-12-04T07:04:18;38.80;;;25.50;;
55222;SDS011;41090;48.632;12.428;2023-12-04T07:06:46;33.97;;;24.58;;
55222;SDS011;41090;48.632;12.428;2023-12-04T07:09:11;38.43;;;25.50;;
55222;SDS011;41090;48.632;12.428;2023-12-04T07:11:36;39.90;;;27.50;;
55222;SDS011;41090;48.632;12.428;2023-12-04T07:14:01;37.63;;;24.90;;
55222;SDS011;41090;48.632;12.428;2023-12-04T07:16:27;36.60;;;24.83;;
55222;SDS011;41090;48.632;12.428;2023-12-04T07:18:52;33.83;;;22.57;;
55222;SDS011;41090;48.632;12.428;2023-12-04T07:21:18;35.43;;;24.03;;
55222;SDS011;41090;48.632;12.428;2023-12-04T07:23:43;37.77;;;24.93;;
55222;SDS011;41090;48.632;12.428;2023-12-04T07:26:08;35.37;;;23.37;;
55222;SDS011;41090;48.632;12.428;2023-12-04T07:28:34;31.63;;;21.83;;
55222;SDS011;41090;48.632;12.428;2023-12-04T07:30:59;32.47;;;22.60;;
55222;SDS011;41090;48.632;12.428;2023-12-04T07:33:25;37.53;;;24.53;;
55222;SDS011;41090;48.632;12.428;2023-12-04T07:35:51;32.63;;;22.73;;
55222;SDS011;41090;48.632;12.428;2023-12-04T07:38:16;34.53;;;23.93;;
55222;SDS011;41090;48.632;12.428;2023-12-04T07:40:42;35.17;;;22.43;;
55222;SDS011;41090;48.632;12.428;2023-12-04T07:43:07;32.70;;;22.63;;
55222;SDS011;41090;48.632;12.428;2023-12-04T07:45:32;29.80;;;21.77;;
55222;SDS011;41090;48.632;12.428;2023-12-04T07:47:59;36.90;;;23.10;;
55222;SDS011;41090;48.632;12.428;2023-12-04T07:50:25;30.23;;;21.00;;
55222;SDS011;41090;48.632;12.428;2023-12-04T07:52:50;32.63;;;21.57;;
55222;SDS011;41090;48.632;12.428;2023-12-04T07:55:15;30.37;;;21.17;;
55222;SDS011;41090;48.632;12.428;2023-12-04T07:57:40;31.03;;;22.50;;
55222;SDS011;41090;48.632;12.428;2023-12-04T08:00:06;33.60;;;22.53;;
55222;SDS011;41090;48.632;12.428;2023-12-04T08:02:31;31.00;;;22.83;;
55222;SDS011;41090;48.632;12.428;2023-12-04T08:04:56;33.13;;;24.10;;
55222;SDS011;41090;48.632;12.428;2023-12-04T08:07:22;29.53;;;20.63;;
55222;SDS011;41090;48.632;12.428;2023-12-04T08:09:47;38.50;;;26.17;;
55222;SDS011;41090;48.632;12.428;2023-12-04T08:12:12;57.03;;;34.13;;
55222;SDS011;41090;48.632;12.428;2023-12-04T08:14:37;48.60;;;29.30;;
55222;SDS011;41090;48.632;12.428;2023-12-04T08:17:03;42.67;;;28.10;;
55222;SDS011;41090;48.632;12.428;2023-12-04T08:19:28;44.57;;;27.63;;
55222;SDS011;41090;48.632;12.428;2023-12-04T08:21:53;38.47;;;25.40;;
55222;SDS011;41090;48.632;12.428;2023-12-04T08:24:18;37.10;;;24.53;;
55222;SDS011;41090;48.632;12.428;2023-12-04T08:26:44;34.87;;;23.90;;
55222;SDS011;41090;48.632;12.428;2023-12-04T08:29:10;34.53;;;25.07;;
55222;SDS011;41090;48.632;12.428;2023-12-04T08:31:36;32.40;;;23.63;;
55222;SDS011;41090;48.632;12.428;2023-12-04T08:34:01;34.90;;;25.30;;
55222;SDS011;41090;48.632;12.428;2023-12-04T08:36:26;30.97;;;22.70;;
55222;SDS011;41090;48.632;12.428;2023-12-04T08:38:51;30.87;;;21.50;;
55222;SDS011;41090;48.632;12.428;2023-12-04T08:41:16;31.87;;;25.07;;
55222;SDS011;41090;48.632;12.428;2023-12-04T08:43:41;32.63;;;27.17;;
55222;SDS011;41090;48.632;12.428;2023-12-04T08:46:07;29.20;;;22.93;;
55222;SDS011;41090;48.632;12.428;2023-12-04T08:48:36;27.43;;;22.73;;
55222;SDS011;41090;48.632;12.428;2023-12-04T08:51:01;31.47;;;26.60;;
55222;SDS011;41090;48.632;12.428;2023-12-04T08:53:26;32.57;;;27.17;;
55222;SDS011;41090;48.632;12.428;2023-12-04T08:55:52;30.90;;;25.03;;
55222;SDS011;41090;48.632;12.428;2023-12-04T08:58:17;30.77;;;22.97;;
55222;SDS011;41090;48.632;12.428;2023-12-04T09:00:43;25.47;;;20.80;;
55222;SDS011;41090;48.632;12.428;2023-12-04T09:03:08;26.57;;;22.93;;
55222;SDS011;41090;48.632;12.428;2023-12-04T09:05:35;29.10;;;23.47;;
55222;SDS011;41090;48.632;12.428;2023-12-04T09:08:00;27.27;;;23.00;;
55222;SDS011;41090;48.632;12.428;2023-12-04T09:10:26;26.60;;;23.00;;
55222;SDS011;41090;48.632;12.428;2023-12-04T09:12:51;27.50;;;22.57;;
55222;SDS011;41090;48.632;12.428;2023-12-04T09:15:16;25.37;;;20.40;;
55222;SDS011;41090;48.632;12.428;2023-12-04T09:17:42;34.97;;;27.20;;
55222;SDS011;41090;48.632;12.428;2023-12-04T09:20:07;25.50;;;19.87;;
55222;SDS011;41090;48.632;12.428;2023-12-04T09:22:32;22.67;;;17.53;;
55222;SDS011;41090;48.632;12.428;2023-12-04T09:24:59;23.93;;;18.60;;
55222;SDS011;41090;48.632;12.428;2023-12-04T09:27:25;23.57;;;19.07;;
55222;SDS011;41090;48.632;12.428;2023-12-04T09:29:50;24.50;;;20.17;;
55222;SDS011;41090;48.632;12.428;2023-12-04T09:32:15;26.20;;;21.47;;
55222;SDS011;41090;48.632;12.428;2023-12-04T09:34:40;27.10;;;22.40;;
55222;SDS011;41090;48.632;12.428;2023-12-04T09:37:06;23.83;;;19.43;;
55222;SDS011;41090;48.632;12.428;2023-12-04T09:39:32;20.27;;;18.10;;
55222;SDS011;41090;48.632;12.428;2023-12-04T09:41:57;20.23;;;16.97;;
55222;SDS011;41090;48.632;12.428;2023-12-04T09:44:23;38.23;;;29.00;;
55222;SDS011;41090;48.632;12.428;2023-12-04T09:46:49;24.33;;;19.93;;
55222;SDS011;41090;48.632;12.428;2023-12-04T09:49:15;20.63;;;17.17;;
55222;SDS011;41090;48.632;12.428;2023-12-04T09:51:42;18.50;;;16.53;;
55222;SDS011;41090;48.632;12.428;2023-12-04T09:54:08;17.73;;;15.83;;
55222;SDS011;41090;48.632;12.428;2023-12-04T09:56:34;17.40;;;15.53;;
55222;SDS011;41090;48.632;12.428;2023-12-04T09:59:00;18.07;;;16.17;;
55222;SDS011;41090;48.632;12.428;2023-12-04T10:01:29;15.80;;;14.20;;
55222;SDS011;41090;48.632;12.428;2023-12-04T10:03:55;17.50;;;15.70;;
55222;SDS011;41090;48.632;12.428;2023-12-04T10:06:22;15.80;;;14.10;;
55222;SDS011;41090;48.632;12.428;2023-12-04T10:08:48;15.97;;;14.10;;
55222;SDS011;41090;48.632;12.428;2023-12-04T10:11:13;14.43;;;13.00;;
55222;SDS011;41090;48.632;12.428;2023-12-04T10:13:42;16.30;;;13.50;;
55222;SDS011;41090;48.632;12.428;2023-12-04T10:16:07;14.43;;;13.03;;
55222;SDS011;41090;48.632;12.428;2023-12-04T10:18:33;13.20;;;11.87;;
55222;SDS011;41090;48.632;12.428;2023-12-04T10:20:58;13.70;;;11.60;;
55222;SDS011;41090;48.632;12.428;2023-12-04T10:23:37;14.20;;;11.87;;
55222;SDS011;41090;48.632;12.428;2023-12-04T10:26:03;13.40;;;12.00;;
55222;SDS011;41090;48.632;12.428;2023-12-04T10:28:29;13.87;;;11.47;;
55222;SDS011;41090;48.632;12.428;2023-12-04T10:30:55;12.73;;;11.17;;
55222;SDS011;41090;48.632;12.428;2023-12-04T10:33:20;12.60;;;11.30;;
55222;SDS011;41090;48.632;12.428;2023-12-04T10:35:46;13.63;;;11.37;;
55222;SDS011;41090;48.632;12.428;2023-12-04T10:38:12;15.10;;;12.93;;
55222;SDS011;41090;48.632;12.428;2023-12-04T10:40:39;20.63;;;17.20;;
55222;SDS011;41090;48.632;12.428;2023-12-04T10:43:17;16.37;;;13.87;;
55222;SDS011;41090;48.632;12.428;2023-12-04T10:45:43;13.73;;;12.33;;
55222;SDS011;41090;48.632;12.428;2023-12-04T10:48:12;12.50;;;11.20;;
55222;SDS011;41090;48.632;12.428;2023-12-04T10:50:38;12.70;;;11.37;;
55222;SDS011;41090;48.632;12.428;2023-12-04T10:53:06;11.67;;;10.47;;
55222;SDS011;41090;48.632;12.428;2023-12-04T10:55:32;12.13;;;10.93;;
55222;SDS011;41090;48.632;12.428;2023-12-04T10:57:59;12.80;;;10.50;;
55222;SDS011;41090;48.632;12.428;2023-12-04T11:00:24;12.43;;;11.13;;
55222;SDS011;41090;48.632;12.428;2023-12-04T11:02:50;12.07;;;10.77;;
55222;SDS011;41090;48.632;12.428;2023-12-04T11:05:18;11.77;;;10.37;;
55222;SDS011;41090;48.632;12.428;2023-12-04T11:08:08;12.50;;;11.20;;
55222;SDS011;41090;48.632;12.428;2023-12-04T11:10:32;12.80;;;11.40;;
55222;SDS011;41090;48.632;12.428;2023-12-04T11:13:06;12.20;;;11.00;;
55222;SDS011;41090;48.632;12.428;2023-12-04T11:15:31;14.27;;;12.03;;
55222;SDS011;41090;48.632;12.428;2023-12-04T11:17:59;12.80;;;11.50;;
55222;SDS011;41090;48.632;12.428;2023-12-04T11:20:27;13.13;;;11.80;;
55222;SDS011;41090;48.632;12.428;2023-12-04T11:22:52;14.17;;;12.67;;
55222;SDS011;41090;48.632;12.428;2023-12-04T11:25:18;15.90;;;14.30;;
55222;SDS011;41090;48.632;12.428;2023-12-04T11:27:44;18.50;;;16.57;;
55222;SDS011;41090;48.632;12.428;2023-12-04T11:30:10;16.63;;;14.83;;
55222;SDS011;41090;48.632;12.428;2023-12-04T11:32:46;17.70;;;15.87;;
55222;SDS011;41090;48.632;12.428;2023-12-04T11:35:14;17.53;;;15.73;;
55222;SDS011;41090;48.632;12.428;2023-12-04T11:37:40;23.03;;;17.27;;
55222;SDS011;41090;48.632;12.428;2023-12-04T11:40:05;23.13;;;18.30;;
55222;SDS011;41090;48.632;12.428;2023-12-04T11:42:32;20.27;;;16.20;;
55222;SDS011;41090;48.632;12.428;2023-12-04T11:44:57;15.60;;;13.47;;
55222;SDS011;41090;48.632;12.428;2023-12-04T11:47:23;14.67;;;12.77;;
55222;SDS011;41090;48.632;12.428;2023-12-04T11:49:48;14.70;;;12.53;;
55222;SDS011;41090;48.632;12.428;2023-12-04T11:52:13;15.50;;;13.00;;
55222;SDS011;41090;48.632;12.428;2023-12-04T11:54:58;16.93;;;13.77;;
55222;SDS011;41090;48.632;12.428;2023-12-04T11:57:24;16.60;;;13.73;;
55222;SDS011;41090;48.632;12.428;2023-12-04T11:59:51;18.23;;;14.70;;
55222;SDS011;41090;48.632;12.428;2023-12-04T12:02:16;16.87;;;13.30;;
55222;SDS011;41090;48.632;12.428;2023-12-04T12:04:42;17.57;;;14.87;;
55222;SDS011;41090;48.632;12.428;2023-12-04T12:07:07;14.73;;;12.37;;
55222;SDS011;41090;48.632;12.428;2023-12-04T12:09:32;16.57;;;13.17;;
55222;SDS011;41090;48.632;12.428;2023-12-04T12:12:01;14.33;;;10.63;;
55222;SDS011;41090;48.632;12.428;2023-12-04T12:14:28;18.87;;;13.00;;
55222;SDS011;41090;48.632;12.428;2023-12-04T12:16:54;23.97;;;15.67;;
55222;SDS011;41090;48.632;12.428;2023-12-04T12:19:20;20.80;;;14.40;;
55222;SDS011;41090;48.632;12.428;2023-12-04T12:21:46;21.50;;;15.77;;
55222;SDS011;41090;48.632;12.428;2023-12-04T12:24:14;18.73;;;15.00;;
55222;SDS011;41090;48.632;12.428;2023-12-04T12:26:39;20.87;;;16.87;;
55222;SDS011;41090;48.632;12.428;2023-12-04T12:29:04;18.70;;;16.40;;
55222;SDS011;41090;48.632;12.428;2023-12-04T12:31:29;21.73;;;17.13;;
55222;SDS011;41090;48.632;12.428;2023-12-04T12:33:55;23.07;;;17.77;;
55222;SDS011;41090;48.632;12.428;2023-12-04T12:36:20;22.27;;;17.20;;
55222;SDS011;41090;48.632;12.428;2023-12-04T12:38:45;21.03;;;17.83;;
55222;SDS011;41090;48.632;12.428;2023-12-04T12:41:15;22.47;;;18.80;;
55222;SDS011;41090;48.632;12.428;2023-12-04T12:43:41;23.80;;;18.60;;
55222;SDS011;41090;48.632;12.428;2023-12-04T12:46:06;23.80;;;18.43;;
55222;SDS011;41090;48.632;12.428;2023-12-04T12:48:32;23.20;;;19.53;;
55222;SDS011;41090;48.632;12.428;2023-12-04T12:50:57;25.87;;;20.90;;
55222;SDS011;41090;48.632;12.428;2023-12-04T12:53:22;25.60;;;20.50;;
55222;SDS011;41090;48.632;12.428;2023-12-04T12:55:47;24.33;;;18.97;;
55222;SDS011;41090;48.632;12.428;2023-12-04T12:58:13;26.30;;;19.27;;
55222;SDS011;41090;48.632;12.428;2023-12-04T13:00:39;29.93;;;20.93;;
55222;SDS011;41090;48.632;12.428;2023-12-04T13:03:04;26.27;;;19.73;;
55222;SDS011;41090;48.632;12.428;2023-12-04T13:05:29;26.03;;;19.40;;
55222;SDS011;41090;48.632;12.428;2023-12-04T13:07:55;23.83;;;19.00;;
55222;SDS011;41090;48.632;12.428;2023-12-04T13:10:23;21.33;;;17.57;;
55222;SDS011;41090;48.632;12.428;2023-12-04T13:12:49;21.43;;;16.80;;
55222;SDS011;41090;48.632;12.428;2023-12-04T13:15:17;25.10;;;17.73;;
55222;SDS011;41090;48.632;12.428;2023-12-04T13:17:42;22.97;;;18.47;;
55222;SDS011;41090;48.632;12.428;2023-12-04T13:20:08;23.93;;;18.10;;
55222;SDS011;41090;48.632;12.428;2023-12-04T13:22:36;23.83;;;17.80;;
55222;SDS011;41090;48.632;12.428;2023-12-04T13:25:01;28.13;;;19.63;;
55222;SDS011;41090;48.632;12.428;2023-12-04T13:27:28;27.73;;;18.83;;
55222;SDS011;41090;48.632;12.428;2023-12-04T13:29:54;25.67;;;18.63;;
55222;SDS011;41090;48.632;12.428;2023-12-04T13:32:19;26.03;;;18.40;;
55222;SDS011;41090;48.632;12.428;2023-12-04T13:34:45;25.27;;;18.13;;
55222;SDS011;41090;48.632;12.428;2023-12-04T13:37:11;23.80;;;17.63;;
55222;SDS011;41090;48.632;12.428;2023-12-04T13:39:36;26.87;;;18.50;;
55222;SDS011;41090;48.632;12.428;2023-12-04T13:42:12;24.93;;;17.23;;
55222;SDS011;41090;48.632;12.428;2023-12-04T13:44:56;25.47;;;18.57;;
55222;SDS011;41090;48.632;12.428;2023-12-04T13:47:21;28.80;;;19.53;;
55222;SDS011;41090;48.632;12.428;2023-12-04T13:49:46;28.87;;;20.10;;
55222;SDS011;41090;48.632;12.428;2023-12-04T13:52:11;26.07;;;18.90;;
55222;SDS011;41090;48.632;12.428;2023-12-04T13:54:37;27.83;;;19.27;;
55222;SDS011;41090;48.632;12.428;2023-12-04T13:57:15;25.23;;;17.90;;
55222;SDS011;41090;48.632;12.428;2023-12-04T13:59:46;26.20;;;18.33;;
55222;SDS011;41090;48.632;12.428;2023-12-04T14:02:11;24.30;;;18.30;;